createdAt,value
2023-07-10T00:02:54.504Z,21.05
2023-07-10T00:05:58.046Z,21.07
2023-07-10T00:09:00.553Z,21.00
2023-07-10T00:12:04.046Z,20.95
2023-07-10T00:15:14.781Z,21.04
2023-07-10T00:18:21.801Z,20.94
2023-07-10T00:21:24.291Z,20.87
2023-07-10T00:24:26.833Z,20.95
2023-07-10T00:27:29.998Z,20.85
2023-07-10T00:30:33.306Z,20.84
2023-07-10T00:33:36.161Z,20.89
2023-07-10T00:36:43.044Z,20.79
2023-07-10T00:39:45.632Z,20.82
2023-07-10T00:42:51.506Z,20.72
2023-07-10T00:45:55.396Z,20.66
2023-07-10T00:49:06.813Z,20.61
2023-07-10T00:52:29.345Z,20.63
2023-07-10T00:55:35.369Z,20.54
2023-07-10T00:58:40.407Z,20.50
2023-07-10T01:02:08.662Z,20.60
2023-07-10T01:05:11.672Z,20.53
2023-07-10T01:08:14.802Z,20.60
2023-07-10T01:11:18.236Z,20.53
2023-07-10T01:14:21.565Z,20.57
2023-07-10T01:17:25.158Z,20.59
2023-07-10T01:20:36.943Z,20.47
2023-07-10T01:23:39.666Z,20.56
2023-07-10T01:26:42.105Z,20.53
2023-07-10T01:29:48.511Z,20.53
2023-07-10T01:32:52.985Z,20.45
2023-07-10T01:36:01.950Z,20.41
2023-07-10T01:39:10.559Z,20.45
2023-07-10T01:42:13.502Z,20.31
2023-07-10T01:45:16.069Z,20.30
2023-07-10T01:48:24.591Z,20.32
2023-07-10T01:51:27.364Z,20.28
2023-07-10T01:54:30.458Z,20.20
2023-07-10T01:57:38.246Z,20.15
2023-07-10T02:00:42.196Z,20.05
2023-07-10T02:03:44.828Z,20.08
2023-07-10T02:06:49.497Z,20.02
2023-07-10T02:09:52.331Z,19.83
2023-07-10T02:12:54.826Z,19.94
2023-07-10T02:16:03.376Z,19.83
2023-07-10T02:19:06.444Z,19.81
2023-07-10T02:22:10.125Z,19.82
2023-07-10T02:25:12.687Z,19.75
2023-07-10T02:28:16.620Z,19.75
2023-07-10T02:31:19.203Z,19.81
2023-07-10T02:34:21.734Z,19.66
2023-07-10T02:37:24.235Z,19.66
2023-07-10T02:40:26.743Z,19.62
2023-07-10T02:43:29.371Z,19.50
2023-07-10T02:46:32.015Z,19.44
2023-07-10T02:49:34.650Z,19.33
2023-07-10T02:52:37.807Z,19.33
2023-07-10T02:55:40.447Z,19.41
2023-07-10T02:58:42.907Z,19.32
2023-07-10T03:01:48.137Z,19.31
2023-07-10T03:04:51.369Z,19.32
2023-07-10T03:07:54.415Z,19.37
2023-07-10T03:11:02.501Z,19.37
2023-07-10T03:14:05.045Z,19.30
2023-07-10T03:17:07.768Z,19.29
2023-07-10T03:20:11.032Z,19.24
2023-07-10T03:23:13.427Z,19.24
2023-07-10T03:26:16.316Z,19.26
2023-07-10T03:29:18.794Z,19.37
2023-07-10T03:32:21.475Z,19.41
2023-07-10T03:35:24.368Z,19.47
2023-07-10T03:38:27.252Z,19.54
2023-07-10T03:41:29.727Z,19.52
2023-07-10T03:44:32.354Z,19.58
2023-07-10T03:47:34.897Z,19.59
2023-07-10T03:50:37.514Z,19.58
2023-07-10T03:53:41.037Z,19.60
2023-07-10T03:56:43.531Z,19.63
2023-07-10T03:59:46.041Z,19.73
2023-07-10T04:02:48.539Z,19.77
2023-07-10T04:05:53.927Z,19.87
2023-07-10T04:08:59.878Z,19.95
2023-07-10T04:12:03.144Z,19.99
2023-07-10T04:15:06.072Z,19.91
2023-07-10T04:18:08.551Z,20.09
2023-07-10T04:21:22.109Z,20.20
2023-07-10T04:24:24.570Z,20.20
2023-07-10T04:27:27.129Z,20.32
2023-07-10T04:30:29.633Z,20.28
2023-07-10T04:33:34.748Z,20.42
2023-07-10T04:36:38.367Z,20.52
2023-07-10T04:39:40.975Z,20.66
2023-07-10T04:42:43.406Z,20.73
2023-07-10T04:45:45.905Z,20.88
2023-07-10T04:48:49.340Z,20.98
2023-07-10T04:51:52.320Z,20.82
2023-07-10T04:54:54.823Z,20.96
2023-07-10T04:57:57.304Z,21.10
2023-07-10T05:01:01.359Z,21.10
2023-07-10T05:04:04.531Z,21.24
2023-07-10T05:07:07.496Z,21.38
2023-07-10T05:10:10.457Z,21.51
2023-07-10T05:13:12.904Z,21.67
2023-07-10T05:16:16.181Z,21.73
2023-07-10T05:19:19.107Z,21.82
2023-07-10T05:22:21.580Z,21.96
2023-07-10T05:25:24.135Z,22.04
2023-07-10T05:28:27.759Z,22.17
2023-07-10T05:31:30.407Z,22.29
2023-07-10T05:34:32.900Z,22.43
2023-07-10T05:37:35.687Z,22.52
2023-07-10T05:40:42.603Z,22.49
2023-07-10T05:43:45.555Z,22.55
2023-07-10T05:46:48.381Z,22.58
2023-07-10T05:49:51.071Z,22.76
2023-07-10T05:52:53.687Z,22.84
2023-07-10T05:55:58.023Z,22.98
2023-07-10T05:59:02.355Z,23.08
2023-07-10T06:02:05.230Z,23.22
2023-07-10T06:05:08.704Z,23.51
2023-07-10T06:08:11.775Z,23.69
2023-07-10T06:11:14.218Z,23.79
2023-07-10T06:14:16.953Z,24.00
2023-07-10T06:17:19.571Z,24.11
2023-07-10T06:20:22.273Z,24.32
2023-07-10T06:23:27.077Z,24.50
2023-07-10T06:26:29.595Z,24.75
2023-07-10T06:29:34.019Z,24.81
2023-07-10T06:32:37.905Z,24.99
2023-07-10T06:35:43.109Z,25.10
2023-07-10T06:38:45.644Z,25.16
2023-07-10T06:41:48.250Z,25.27
2023-07-10T06:44:50.818Z,25.46
2023-07-10T06:47:53.340Z,25.60
2023-07-10T06:50:57.316Z,25.84
2023-07-10T06:53:59.933Z,26.07
2023-07-10T06:57:02.408Z,26.13
2023-07-10T07:00:09.655Z,26.38
2023-07-10T07:03:12.274Z,26.35
2023-07-10T07:06:14.819Z,26.58
2023-07-10T07:09:17.240Z,26.72
2023-07-10T07:12:19.752Z,26.86
2023-07-10T07:15:22.281Z,26.86
2023-07-10T07:18:29.381Z,26.98
2023-07-10T07:21:32.180Z,27.15
2023-07-10T07:24:34.766Z,27.23
2023-07-10T07:27:37.393Z,27.55
2023-07-10T07:30:41.219Z,27.61
2023-07-10T07:33:43.772Z,27.57
2023-07-10T07:36:46.401Z,27.91
2023-07-10T07:39:48.977Z,27.92
2023-07-10T07:42:51.458Z,28.35
2023-07-10T07:45:56.579Z,28.52
2023-07-10T07:48:59.322Z,28.50
2023-07-10T07:52:01.798Z,28.83
2023-07-10T07:55:05.637Z,29.10
2023-07-10T07:58:08.167Z,29.02
2023-07-10T08:01:11.087Z,29.11
2023-07-10T08:04:13.685Z,29.15
2023-07-10T08:07:16.288Z,29.40
2023-07-10T08:10:18.807Z,29.66
2023-07-10T08:13:22.115Z,29.82
2023-07-10T08:16:25.021Z,29.72
2023-07-10T08:19:27.509Z,29.84
2023-07-10T08:22:29.951Z,29.97
2023-07-10T08:25:34.339Z,30.02
2023-07-10T08:28:36.905Z,30.09
2023-07-10T08:31:39.340Z,30.34
2023-07-10T08:34:41.896Z,30.28
2023-07-10T08:37:44.626Z,30.64
2023-07-10T08:40:50.716Z,30.93
2023-07-10T08:43:53.274Z,30.88
2023-07-10T08:46:56.579Z,31.23
2023-07-10T08:50:18.010Z,31.33
2023-07-10T08:53:25.921Z,31.42
2023-07-10T08:56:36.688Z,31.78
2023-07-10T09:00:09.713Z,31.66
2023-07-10T09:03:41.383Z,32.28
2023-07-10T09:06:51.141Z,32.20
2023-07-10T09:10:00.985Z,32.33
2023-07-10T09:13:04.448Z,32.16
2023-07-10T09:16:21.391Z,31.71
2023-07-10T09:19:25.347Z,32.21
2023-07-10T09:22:27.912Z,31.89
2023-07-10T09:25:31.371Z,31.72
2023-07-10T09:28:34.618Z,32.00
2023-07-10T09:32:11.728Z,32.14
2023-07-10T09:35:17.109Z,32.28
2023-07-10T09:38:20.022Z,32.34
2023-07-10T09:41:30.771Z,32.35
2023-07-10T09:44:39.271Z,32.54
2023-07-10T09:47:45.018Z,32.71
2023-07-10T09:50:50.832Z,33.24
2023-07-10T09:54:03.361Z,33.26
2023-07-10T09:57:13.648Z,33.08
2023-07-10T10:00:18.487Z,33.02
2023-07-10T10:03:39.962Z,33.31
2023-07-10T10:06:43.921Z,32.91
2023-07-10T10:09:48.309Z,32.81
2023-07-10T10:13:16.538Z,32.83
2023-07-10T10:16:37.599Z,32.92
2023-07-10T10:19:44.840Z,33.02
2023-07-10T10:22:48.447Z,33.47
2023-07-10T10:25:53.109Z,33.85
2023-07-10T10:29:05.900Z,34.08
2023-07-10T10:32:33.711Z,33.65
2023-07-10T10:35:46.420Z,33.46
2023-07-10T10:39:10.423Z,33.36
2023-07-10T10:42:27.208Z,33.97
2023-07-10T10:45:40.431Z,34.97
2023-07-10T10:49:17.059Z,35.61
2023-07-10T10:52:31.548Z,36.11
2023-07-10T10:55:53.998Z,37.25
2023-07-10T10:59:58.618Z,36.87
2023-07-10T11:03:10.015Z,38.53
2023-07-10T11:06:39.854Z,39.72
2023-07-10T11:09:45.076Z,40.52
2023-07-10T11:12:47.640Z,40.94
2023-07-10T11:15:51.187Z,40.61
2023-07-10T11:18:54.063Z,41.38
2023-07-10T11:21:57.115Z,40.96
2023-07-10T11:25:02.812Z,42.82
2023-07-10T11:28:26.903Z,42.99
2023-07-10T11:31:33.111Z,43.93
2023-07-10T11:34:38.987Z,43.14
2023-07-10T11:38:01.611Z,42.73
2023-07-10T11:41:25.708Z,42.75
2023-07-10T11:44:34.159Z,41.28
2023-07-10T11:47:36.775Z,41.15
2023-07-10T11:50:39.370Z,41.67
2023-07-10T11:53:42.057Z,42.72
2023-07-10T11:57:11.728Z,44.77
2023-07-10T12:00:14.400Z,44.00
2023-07-10T12:03:16.958Z,45.00
2023-07-10T12:06:22.088Z,45.13
2023-07-10T12:09:24.607Z,45.20
2023-07-10T12:12:32.267Z,43.88
2023-07-10T12:15:37.541Z,44.67
2023-07-10T12:18:42.160Z,44.76
2023-07-10T12:21:46.012Z,44.51
2023-07-10T12:24:51.358Z,44.49
2023-07-10T12:31:00.309Z,48.03
2023-07-10T12:34:03.641Z,48.63
2023-07-10T12:37:11.390Z,45.37
2023-07-10T12:40:16.535Z,42.89
2023-07-10T12:43:23.822Z,40.32
2023-07-10T12:46:30.186Z,39.39
2023-07-10T12:49:34.762Z,38.95
2023-07-10T12:52:38.602Z,38.80
2023-07-10T12:55:41.964Z,38.27
2023-07-10T12:58:48.869Z,37.80
2023-07-10T13:01:55.463Z,39.72
2023-07-10T13:05:00.392Z,38.86
2023-07-10T13:08:03.743Z,38.28
2023-07-10T13:11:07.433Z,37.95
2023-07-10T13:14:26.027Z,37.88
2023-07-10T13:17:29.363Z,38.31
2023-07-10T13:20:32.018Z,38.09
2023-07-10T13:23:34.787Z,37.32
2023-07-10T13:26:37.317Z,38.13
2023-07-10T13:29:39.973Z,39.42
2023-07-10T13:32:42.532Z,39.91
2023-07-10T13:35:47.751Z,43.36
2023-07-10T13:38:50.380Z,44.99
2023-07-10T13:41:54.421Z,42.31
2023-07-10T13:44:56.946Z,41.85
2023-07-10T13:47:59.398Z,41.91
2023-07-10T13:51:02.940Z,42.10
2023-07-10T13:54:06.237Z,43.10
2023-07-10T13:57:31.105Z,41.94
2023-07-10T14:00:33.597Z,40.75
2023-07-10T14:03:36.847Z,43.12
2023-07-10T14:06:46.543Z,44.52
2023-07-10T14:09:49.569Z,43.50
2023-07-10T14:12:52.393Z,41.04
2023-07-10T14:16:04.129Z,39.99
2023-07-10T14:19:15.951Z,39.18
2023-07-10T14:22:18.438Z,39.81
2023-07-10T14:25:23.358Z,41.33
2023-07-10T14:28:27.557Z,41.94
2023-07-10T14:31:30.275Z,41.29
2023-07-10T14:34:32.762Z,40.05
2023-07-10T14:37:35.234Z,39.33
2023-07-10T14:40:37.801Z,39.55
2023-07-10T14:43:42.603Z,39.63
2023-07-10T14:46:54.745Z,41.19
2023-07-10T14:50:07.082Z,40.23
2023-07-10T14:53:16.369Z,40.59
2023-07-10T14:56:18.882Z,39.65
2023-07-10T14:59:21.451Z,38.68
2023-07-10T15:02:26.245Z,37.88
2023-07-10T15:05:30.331Z,37.05
2023-07-10T15:08:39.398Z,36.70
2023-07-10T15:11:42.794Z,36.72
2023-07-10T15:14:45.991Z,37.78
2023-07-10T15:17:49.125Z,37.45
2023-07-10T15:20:51.821Z,37.27
2023-07-10T15:23:54.433Z,36.97
2023-07-10T15:26:57.145Z,37.48
2023-07-10T15:29:59.680Z,37.34
2023-07-10T15:33:03.522Z,36.99
2023-07-10T15:36:06.898Z,36.45
2023-07-10T15:39:16.933Z,36.09
2023-07-10T15:42:20.158Z,35.92
2023-07-10T15:45:23.290Z,35.79
2023-07-10T15:48:25.930Z,35.56
2023-07-10T15:51:28.948Z,35.57
2023-07-10T15:54:31.512Z,35.31
2023-07-10T15:57:34.035Z,34.99
2023-07-10T16:00:40.336Z,35.15
2023-07-10T16:03:43.270Z,35.11
2023-07-10T16:06:45.765Z,34.94
2023-07-10T16:09:48.209Z,35.09
2023-07-10T16:12:52.444Z,34.91
2023-07-10T16:15:54.945Z,34.91
2023-07-10T16:18:57.448Z,34.89
2023-07-10T16:21:59.891Z,34.69
2023-07-10T16:25:02.436Z,34.64
2023-07-10T16:28:05.194Z,34.45
2023-07-10T16:31:22.018Z,34.45
2023-07-10T16:34:26.227Z,34.37
2023-07-10T16:37:28.878Z,34.04
2023-07-10T16:40:31.402Z,34.01
2023-07-10T16:43:35.310Z,33.84
2023-07-10T16:46:38.908Z,33.80
2023-07-10T16:49:41.471Z,33.51
2023-07-10T16:52:45.500Z,33.62
2023-07-10T16:55:48.204Z,33.58
2023-07-10T16:58:51.931Z,33.54
2023-07-10T17:01:54.472Z,33.46
2023-07-10T17:04:57.007Z,33.50
2023-07-10T17:08:00.678Z,33.37
2023-07-10T17:11:03.591Z,33.19
2023-07-10T17:14:14.996Z,32.95
2023-07-10T17:17:22.519Z,32.50
2023-07-10T17:20:25.076Z,32.34
2023-07-10T17:23:32.529Z,32.10
2023-07-10T17:26:35.075Z,31.78
2023-07-10T17:29:37.548Z,31.60
2023-07-10T17:32:40.892Z,31.39
2023-07-10T17:35:43.352Z,30.95
2023-07-10T17:38:46.781Z,30.56
2023-07-10T17:41:51.734Z,30.53
2023-07-10T17:44:54.230Z,30.35
2023-07-10T17:47:56.787Z,30.35
2023-07-10T17:51:06.608Z,30.31
2023-07-10T17:54:29.158Z,30.20
2023-07-10T17:57:31.736Z,30.18
2023-07-10T18:00:34.179Z,30.14
2023-07-10T18:03:36.652Z,29.98
2023-07-10T18:06:39.887Z,29.97
2023-07-10T18:09:42.730Z,29.85
2023-07-10T18:12:45.216Z,29.63
2023-07-10T18:15:47.840Z,29.70
2023-07-10T18:18:50.520Z,29.49
2023-07-10T18:21:57.039Z,29.54
2023-07-10T18:24:59.603Z,29.27
2023-07-10T18:28:02.155Z,29.16
2023-07-10T18:31:15.235Z,29.00
2023-07-10T18:34:20.865Z,29.01
2023-07-10T18:37:24.971Z,29.01
2023-07-10T18:40:27.681Z,29.00
2023-07-10T18:43:33.983Z,29.08
2023-07-10T18:46:36.540Z,28.93
2023-07-10T18:49:39.325Z,28.86
2023-07-10T18:52:42.397Z,28.55
2023-07-10T18:55:44.810Z,28.42
2023-07-10T18:58:48.536Z,28.35
2023-07-10T19:01:54.262Z,28.33
2023-07-10T19:04:57.732Z,28.20
2023-07-10T19:08:00.279Z,28.22
2023-07-10T19:11:02.977Z,28.11
2023-07-10T19:14:13.563Z,28.04
2023-07-10T19:17:20.697Z,27.97
2023-07-10T19:20:23.521Z,27.82
2023-07-10T19:23:29.169Z,27.80
2023-07-10T19:26:31.733Z,27.61
2023-07-10T19:29:34.338Z,27.49
2023-07-10T19:32:36.863Z,27.41
2023-07-10T19:35:39.362Z,27.31
2023-07-10T19:38:42.762Z,27.33
2023-07-10T19:41:45.877Z,27.38
2023-07-10T19:44:52.714Z,27.33
2023-07-10T19:47:55.260Z,27.06
2023-07-10T19:50:57.819Z,26.92
2023-07-10T19:54:00.331Z,26.67
2023-07-10T19:57:03.067Z,26.52
2023-07-10T20:00:06.309Z,26.38
2023-07-10T20:03:22.170Z,26.22
2023-07-10T20:06:26.674Z,26.23
2023-07-10T20:09:29.174Z,25.99
2023-07-10T20:12:32.828Z,26.00
2023-07-10T20:15:35.445Z,25.94
2023-07-10T20:18:38.184Z,26.01
2023-07-10T20:21:40.697Z,25.97
2023-07-10T20:24:43.248Z,25.47
2023-07-10T20:27:45.878Z,25.48
2023-07-10T20:30:53.779Z,25.19
2023-07-10T20:33:56.344Z,25.08
2023-07-10T20:36:58.816Z,25.16
2023-07-10T20:40:01.325Z,25.06
2023-07-10T20:43:13.755Z,25.01
2023-07-10T20:46:25.789Z,24.76
2023-07-10T20:49:28.444Z,24.47
2023-07-10T20:52:30.882Z,24.60
2023-07-10T20:55:33.994Z,24.57
2023-07-10T20:58:36.472Z,24.49
2023-07-10T21:01:38.999Z,24.67
2023-07-10T21:04:41.481Z,24.80
2023-07-10T21:07:44.573Z,24.83
2023-07-10T21:10:48.099Z,24.79
2023-07-10T21:13:52.036Z,24.87
2023-07-10T21:16:54.635Z,24.93
2023-07-10T21:19:57.295Z,24.81
2023-07-10T21:22:59.967Z,24.72
2023-07-10T21:26:17.932Z,24.68
2023-07-10T21:29:20.930Z,24.70
2023-07-10T21:32:25.326Z,24.43
2023-07-10T21:35:31.032Z,24.54
2023-07-10T21:38:33.576Z,24.55
2023-07-10T21:41:39.418Z,24.54
2023-07-10T21:44:41.871Z,24.68
2023-07-10T21:47:44.446Z,24.60
2023-07-10T21:50:52.043Z,24.55
2023-07-10T21:53:55.189Z,24.58
2023-07-10T21:56:57.881Z,24.50
2023-07-10T22:00:00.339Z,24.38
2023-07-10T22:03:03.002Z,24.37
2023-07-10T22:06:07.770Z,24.23
2023-07-10T22:09:12.634Z,24.27
2023-07-10T22:12:16.222Z,24.14
2023-07-10T22:15:21.958Z,24.01
2023-07-10T22:18:31.067Z,24.02
2023-07-10T22:21:35.457Z,23.95
2023-07-10T22:24:37.915Z,23.93
2023-07-10T22:27:40.586Z,23.81
2023-07-10T22:30:45.817Z,23.84
2023-07-10T22:33:49.024Z,23.68
2023-07-10T22:36:51.483Z,23.56
2023-07-10T22:39:53.988Z,23.53
2023-07-10T22:42:56.515Z,23.35
2023-07-10T22:46:17.301Z,23.21
2023-07-10T22:49:19.769Z,23.34
2023-07-10T22:52:22.343Z,23.34
2023-07-10T22:55:24.800Z,23.20
2023-07-10T22:58:27.333Z,23.31
2023-07-10T23:01:30.178Z,23.28
2023-07-10T23:04:33.033Z,23.29
2023-07-10T23:07:35.513Z,23.37
2023-07-10T23:10:37.960Z,23.30
2023-07-10T23:13:40.479Z,23.22
2023-07-10T23:16:42.994Z,23.08
2023-07-10T23:19:45.491Z,23.18
2023-07-10T23:22:48.143Z,23.08
2023-07-10T23:25:50.636Z,23.22
2023-07-10T23:28:53.853Z,23.24
2023-07-10T23:31:57.159Z,23.22
2023-07-10T23:35:00.944Z,23.19
2023-07-10T23:38:03.538Z,23.19
2023-07-10T23:41:06.201Z,23.19
2023-07-10T23:44:08.682Z,23.10
2023-07-10T23:47:12.014Z,23.09
2023-07-10T23:50:16.836Z,22.96
2023-07-10T23:53:19.398Z,22.93
2023-07-10T23:56:21.897Z,22.89
2023-07-10T23:59:24.427Z,22.93
